Time;durP1;ratioP1;P1;durP2;ratioP2;P2;SDS_P1;SDS_P2;PMS_P1;PMS_P2;Temp;Humidity;BMP_temperature;BMP_pressure;BME280_temperature;BME280_humidity;BME280_pressure;Samples;Min_cycle;Max_cycle;Signal;HPM_P1;HPM_P2
2021/12/20 00:01:30;;;;;;;13.05;2.80;;;;;;;9.04;81.72;100885.31;5084321;28;20039;-74
2021/12/20 00:03:58;;;;;;;16.05;7.75;;;;;;;9.06;81.66;100887.97;5068570;28;20045;-74
2021/12/20 00:06:26;;;;;;;13.27;5.57;;;;;;;9.03;81.72;100885.28;5066823;28;21765;-74
2021/12/20 00:08:55;;;;;;;10.65;3.70;;;;;;;8.98;81.64;100892.19;5068655;28;20066;-74
2021/12/20 00:11:23;;;;;;;11.77;4.82;;;;;;;8.96;81.28;100893.88;5072650;28;20055;-74
2021/12/20 00:13:50;;;;;;;10.95;3.20;;;;;;;8.95;80.89;100886.81;5073127;28;20128;-73
2021/12/20 00:16:18;;;;;;;8.20;2.85;;;;;;;8.91;80.90;100896.41;5072838;28;20029;-73
2021/12/20 00:18:46;;;;;;;10.90;4.97;;;;;;;8.92;80.95;100900.81;5072412;28;20127;-74
2021/12/20 00:21:14;;;;;;;8.60;5.15;;;;;;;8.95;80.58;100893.00;5088013;28;20040;-74
2021/12/20 00:23:41;;;;;;;25.85;11.32;;;;;;;8.93;80.07;100906.94;5072510;28;20097;-74
2021/12/20 00:26:11;;;;;;;28.77;14.75;;;;;;;8.98;80.31;100907.97;5070141;28;20044;-74
2021/12/20 00:28:40;;;;;;;26.55;12.57;;;;;;;9.01;80.10;100906.28;5077602;28;20497;-74
2021/12/20 00:31:07;;;;;;;15.95;8.90;;;;;;;8.98;79.78;100910.63;5088619;28;20032;-73
2021/12/20 00:33:35;;;;;;;29.63;11.05;;;;;;;8.96;79.38;100912.31;5072069;28;20598;-73
2021/12/20 00:36:04;;;;;;;34.22;12.65;;;;;;;8.92;78.97;100911.34;5072200;28;20127;-73
2021/12/20 00:41:18;;;;;;;15.70;5.22;;;;;;;8.97;78.13;100903.56;5086924;28;20515;-73
2021/12/20 00:43:45;;;;;;;17.95;5.30;;;;;;;8.98;78.00;100910.63;5071435;28;20130;-73
2021/12/20 00:46:13;;;;;;;17.80;6.68;;;;;;;8.97;77.70;100914.09;5071501;28;20492;-73
2021/12/20 00:48:41;;;;;;;12.30;3.30;;;;;;;8.94;77.80;100911.38;5070024;28;20064;-73
2021/12/20 00:51:09;;;;;;;14.40;4.03;;;;;;;8.93;76.98;100910.47;5069901;28;20046;-73
2021/12/20 00:53:36;;;;;;;10.60;3.33;;;;;;;8.93;76.72;100909.59;5069828;28;20041;-74
2021/12/20 00:56:04;;;;;;;14.23;3.58;;;;;;;8.94;76.48;100901.72;5070795;28;20120;-73
2021/12/20 00:58:33;;;;;;;13.82;3.92;;;;;;;8.98;76.50;100907.97;5072536;28;20127;-73
2021/12/20 01:01:02;;;;;;;12.60;3.00;;;;;;;8.98;76.43;100906.25;5075875;28;20119;-73
2021/12/20 01:03:31;;;;;;;10.68;3.33;;;;;;;9.03;76.22;100914.25;5070909;28;20044;-73
2021/12/20 01:05:59;;;;;;;10.48;2.60;;;;;;;9.06;76.27;100909.91;5087126;28;20040;-73
2021/12/20 01:08:30;;;;;;;12.73;5.85;;;;;;;9.09;76.19;100914.38;5069948;28;20072;-73
2021/12/20 01:11:00;;;;;;;18.45;10.05;;;;;;;9.12;76.23;100922.38;5070403;28;20036;-72
2021/12/20 01:13:30;;;;;;;12.20;5.75;;;;;;;9.16;76.29;100908.41;5070899;28;20044;-73
2021/12/20 01:16:02;;;;;;;16.17;6.32;;;;;;;9.24;76.06;100911.22;5071752;28;20033;-73
2021/12/20 01:18:30;;;;;;;12.82;2.60;;;;;;;9.25;76.08;100908.63;5075569;28;20074;-73
2021/12/20 01:20:57;;;;;;;9.70;2.50;;;;;;;9.27;76.31;100903.38;5098284;28;20051;-72
2021/12/20 01:23:25;;;;;;;8.90;2.55;;;;;;;9.26;76.21;100909.50;5086724;28;20063;-73
2021/12/20 01:25:52;;;;;;;6.43;2.00;;;;;;;9.23;75.88;100905.06;5072111;28;20485;-72
2021/12/20 01:28:20;;;;;;;10.77;2.50;;;;;;;9.21;75.29;100906.78;5071025;28;20057;-72
2021/12/20 01:30:48;;;;;;;10.05;2.22;;;;;;;9.22;74.60;100903.28;5070310;28;20045;-73
2021/12/20 01:33:17;;;;;;;7.72;1.70;;;;;;;9.26;74.22;100898.97;5071029;28;20061;-73
2021/12/20 01:35:45;;;;;;;13.50;2.78;;;;;;;9.26;73.97;100898.97;5070723;28;20455;-73
2021/12/20 01:38:12;;;;;;;11.02;2.47;;;;;;;9.28;73.71;100898.16;5071054;28;20131;-73
2021/12/20 01:40:40;;;;;;;8.73;2.33;;;;;;;9.26;73.32;100907.75;5071297;28;20036;-74
2021/12/20 01:43:11;;;;;;;8.93;2.30;;;;;;;9.25;73.03;100903.38;5085887;28;20068;-74
2021/12/20 01:45:39;;;;;;;10.07;2.35;;;;;;;9.27;72.85;100911.28;5068585;28;20040;-73
2021/12/20 01:48:10;;;;;;;8.43;2.13;;;;;;;9.29;72.60;100909.59;5070517;28;20120;-76
2021/12/20 01:53:27;;;;;;;48.75;17.05;;;;;;;9.34;72.61;100907.94;5068956;28;20401;-74
2021/12/20 01:55:56;;;;;;;34.08;11.30;;;;;;;9.39;72.36;100904.53;5070053;28;20048;-73
2021/12/20 01:58:25;;;;;;;77.93;28.75;;;;;;;9.44;71.97;100909.94;5069883;28;20036;-73
2021/12/20 02:01:17;;;;;;;38.47;15.38;;;;;;;9.45;72.20;100896.78;5067919;28;20048;-73
2021/12/20 02:03:50;;;;;;;24.40;7.15;;;;;;;9.44;72.37;100896.78;5068100;28;20036;-74
2021/12/20 02:06:25;;;;;;;15.27;3.65;;;;;;;9.43;71.85;100892.34;5085970;28;20076;-74
2021/12/20 02:08:54;;;;;;;13.40;2.70;;;;;;;9.39;71.12;100899.28;5069704;28;20043;-74
2021/12/20 02:11:22;;;;;;;11.90;3.33;;;;;;;9.36;70.99;100893.97;5052047;28;20094;-74
2021/12/20 02:13:50;;;;;;;9.50;2.28;;;;;;;9.33;70.87;100888.59;5068500;28;20711;-74
2021/12/20 02:16:19;;;;;;;13.98;3.47;;;;;;;9.29;70.46;100886.78;5069137;28;20040;-74
2021/12/20 02:18:48;;;;;;;9.18;3.05;;;;;;;9.22;70.29;100883.94;5085049;28;20141;-74
2021/12/20 02:21:17;;;;;;;8.43;2.30;;;;;;;9.18;69.82;100878.63;5070523;28;20068;-74
2021/12/20 02:23:45;;;;;;;8.45;2.20;;;;;;;9.13;69.88;100876.72;5069818;28;20045;-74
2021/12/20 02:26:16;;;;;;;6.70;2.22;;;;;;;9.11;69.56;100886.34;5067453;28;20687;-74
2021/12/20 02:28:46;;;;;;;15.07;2.78;;;;;;;9.08;69.80;100883.63;5067223;28;20037;-73
2021/12/20 02:39:56;;;;;;;10.52;3.22;;;;;;;9.04;70.08;100898.50;5068833;27;20154;-73
2021/12/20 02:42:28;;;;;;;10.60;3.80;;;;;;;9.02;69.36;100888.75;5065174;28;20056;-74
2021/12/20 02:45:09;;;;;;;8.85;3.15;;;;;;;8.99;69.11;100888.69;5064568;28;22089;-74
2021/12/20 02:47:41;;;;;;;9.25;3.90;;;;;;;9.00;69.01;100888.72;5067377;28;20048;-73
2021/12/20 02:50:10;;;;;;;11.85;2.65;;;;;;;8.97;69.00;100893.03;5068232;28;20052;-74
2021/12/20 02:52:37;;;;;;;7.55;2.28;;;;;;;8.97;68.77;100899.19;5086095;28;20051;-75
2021/12/20 02:55:09;;;;;;;8.50;2.40;;;;;;;9.00;68.08;100888.72;5086506;28;20446;-75
2021/12/20 02:57:37;;;;;;;6.50;2.42;;;;;;;8.98;67.76;100890.44;5086104;28;20484;-76
2021/12/20 03:00:07;;;;;;;5.15;1.73;;;;;;;8.98;67.58;100879.03;5070480;28;20128;-74
2021/12/20 03:02:35;;;;;;;6.60;3.15;;;;;;;9.00;67.50;100878.19;5084021;28;20086;-74
2021/12/20 03:05:02;;;;;;;6.22;2.60;;;;;;;8.98;67.59;100890.44;5084481;28;20719;-73
2021/12/20 03:07:38;;;;;;;6.40;2.67;;;;;;;9.01;67.88;100889.59;5084459;28;20108;-74
2021/12/20 03:10:09;;;;;;;5.82;1.85;;;;;;;9.01;67.76;100894.88;5101253;28;20090;-75
2021/12/20 03:12:37;;;;;;;7.53;2.10;;;;;;;9.01;67.02;100892.25;5083817;28;20450;-76
2021/12/20 03:15:11;;;;;;;5.25;2.50;;;;;;;9.00;66.59;100890.47;5084962;28;20046;-75
2021/12/20 03:17:39;;;;;;;6.72;2.25;;;;;;;8.95;66.62;100893.00;5063918;28;20611;-75
2021/12/20 03:20:08;;;;;;;6.75;2.35;;;;;;;8.93;66.44;100896.41;5065893;28;20041;-75
2021/12/20 03:22:35;;;;;;;7.18;3.15;;;;;;;8.90;66.63;100894.63;5065206;28;20458;-75
2021/12/20 03:25:04;;;;;;;12.43;3.70;;;;;;;8.94;66.55;100890.31;5063746;28;20098;-75
2021/12/20 03:27:33;;;;;;;9.20;2.78;;;;;;;8.98;67.16;100892.19;5064622;28;20044;-74
2021/12/20 03:30:01;;;;;;;5.13;1.98;;;;;;;9.01;67.57;100892.25;5063280;28;20094;-74
2021/12/20 03:32:28;;;;;;;10.18;4.10;;;;;;;9.04;68.07;100902.88;5030157;28;20409;-74
2021/12/20 03:34:56;;;;;;;6.28;3.60;;;;;;;9.07;68.27;100903.81;5063575;28;20118;-73
2021/12/20 03:37:24;;;;;;;4.47;2.72;;;;;;;9.11;68.37;100894.25;5064072;28;20040;-74
2021/12/20 03:39:52;;;;;;;8.60;3.00;;;;;;;9.15;68.60;100901.34;5024105;28;20037;-74
2021/12/20 03:42:20;;;;;;;7.65;2.53;;;;;;;9.16;68.39;100890.88;5038536;28;20037;-73
2021/12/20 03:44:49;;;;;;;5.10;2.20;;;;;;;9.25;68.27;100894.56;5030610;28;20042;-74
2021/12/20 03:47:17;;;;;;;7.43;2.28;;;;;;;9.26;68.39;100901.59;5025096;28;20042;-74
2021/12/20 03:49:44;;;;;;;8.13;4.10;;;;;;;9.26;68.12;100902.50;5039689;28;20132;-74
2021/12/20 03:52:12;;;;;;;10.57;4.57;;;;;;;9.24;67.99;100901.59;5027561;28;20046;-74
2021/12/20 03:54:40;;;;;;;8.88;3.40;;;;;;;9.25;68.22;100906.00;5027200;28;20038;-74
2021/12/20 03:57:08;;;;;;;7.78;2.72;;;;;;;9.25;67.51;100891.94;5030336;28;20049;-74
2021/12/20 03:59:36;;;;;;;8.13;3.25;;;;;;;9.22;67.51;100891.84;5027138;28;20075;-75
2021/12/20 04:02:07;;;;;;;6.18;2.63;;;;;;;9.20;67.17;100899.72;5003725;28;20133;-75
2021/12/20 04:04:35;;;;;;;7.72;2.88;;;;;;;9.18;67.29;100890.91;5031040;28;20120;-74
2021/12/20 04:07:02;;;;;;;9.18;2.65;;;;;;;9.16;67.24;100906.66;5030273;28;20125;-75
2021/12/20 04:09:30;;;;;;;7.95;3.55;;;;;;;9.14;67.30;100902.22;5029260;28;20401;-74
2021/12/20 04:11:58;;;;;;;7.55;2.70;;;;;;;9.12;67.23;100912.69;5029760;28;20045;-74
2021/12/20 04:14:26;;;;;;;7.68;2.95;;;;;;;9.14;67.20;100905.72;5009402;28;20049;-75
2021/12/20 04:16:54;;;;;;;6.90;3.10;;;;;;;9.16;66.69;100908.41;5009859;28;20541;-75
2021/12/20 04:19:23;;;;;;;6.13;2.28;;;;;;;9.17;66.92;100913.72;5011556;28;20406;-75
2021/12/20 04:21:51;;;;;;;3.25;2.15;;;;;;;9.22;67.06;100911.19;5010369;28;20126;-74
2021/12/20 04:24:19;;;;;;;5.75;2.00;;;;;;;9.27;67.04;100916.53;5010742;28;20042;-75
2021/12/20 04:26:46;;;;;;;5.38;1.85;;;;;;;9.30;67.08;100912.25;5010558;28;20054;-75
2021/12/20 04:29:14;;;;;;;4.90;1.83;;;;;;;9.34;67.26;100918.47;5007311;28;20054;-74
2021/12/20 04:31:42;;;;;;;7.05;2.88;;;;;;;9.32;66.24;100912.31;5014859;28;20506;-74
2021/12/20 04:34:09;;;;;;;12.88;4.47;;;;;;;9.36;66.73;100915.03;5020624;28;20034;-73
2021/12/20 04:36:39;;;;;;;57.40;22.45;;;;;;;9.39;66.70;100919.47;5013429;28;20563;-76
2021/12/20 04:39:12;;;;;;;36.63;13.60;;;;;;;9.39;67.16;100925.63;5057211;28;20134;-74
2021/12/20 04:41:40;;;;;;;19.08;7.70;;;;;;;9.44;67.06;100916.09;5050307;28;20057;-73
2021/12/20 04:44:08;;;;;;;12.98;4.15;;;;;;;9.43;67.72;100922.22;5050706;28;20048;-74
2021/12/20 04:46:36;;;;;;;20.45;8.35;;;;;;;9.43;67.70;100923.97;5047230;28;20110;-73
2021/12/20 04:49:04;;;;;;;16.10;6.15;;;;;;;9.42;67.90;100923.06;5055176;28;20032;-74
2021/12/20 04:51:31;;;;;;;22.42;7.47;;;;;;;9.42;68.35;100923.06;5084691;28;20044;-73
2021/12/20 04:54:01;;;;;;;17.45;6.40;;;;;;;9.47;68.14;100925.81;5051871;28;20044;-73
2021/12/20 04:56:28;;;;;;;9.30;3.05;;;;;;;9.48;68.07;100928.47;5068531;28;20098;-73
2021/12/20 04:58:56;;;;;;;7.07;3.38;;;;;;;9.53;68.19;100923.31;5068234;28;20040;-74
2021/12/20 05:01:24;;;;;;;10.95;4.22;;;;;;;9.54;68.27;100927.72;5068644;28;20044;-74
2021/12/20 05:03:52;;;;;;;11.43;6.18;;;;;;;9.53;68.46;100931.22;5070753;28;20455;-74
2021/12/20 05:06:21;;;;;;;9.55;4.57;;;;;;;9.51;68.58;100925.94;5068392;28;20446;-73
2021/12/20 05:08:50;;;;;;;8.88;3.17;;;;;;;9.52;68.49;100937.31;5062838;28;20037;-74
2021/12/20 05:11:21;;;;;;;8.48;3.47;;;;;;;9.58;68.39;100941.00;5068976;28;20037;-74
2021/12/20 05:13:48;;;;;;;7.18;2.28;;;;;;;9.57;68.79;100941.88;5068759;28;20049;-73
2021/12/20 05:16:16;;;;;;;6.55;2.50;;;;;;;9.59;68.80;100939.25;5068478;28;20499;-74
2021/12/20 05:18:43;;;;;;;9.38;4.13;;;;;;;9.58;68.72;100935.72;5070467;28;20575;-74
2021/12/20 05:21:11;;;;;;;9.20;3.40;;;;;;;9.57;68.85;100944.50;5068357;28;20036;-73
2021/12/20 05:23:38;;;;;;;15.10;8.15;;;;;;;9.54;68.86;100943.53;5067607;28;20045;-76
2021/12/20 05:26:06;;;;;;;18.52;7.38;;;;;;;9.54;68.74;100946.16;5070637;28;20110;-73
2021/12/20 05:28:35;;;;;;;17.20;8.40;;;;;;;9.53;68.30;100950.53;5066626;28;20143;-73
2021/12/20 05:31:03;;;;;;;3.75;1.77;;;;;;;9.50;68.14;100949.59;5067791;28;20155;-73
2021/12/20 05:33:31;;;;;;;4.60;3.78;;;;;;;9.48;68.51;100953.94;5064474;28;20036;-74
2021/12/20 05:35:58;;;;;;;4.28;2.10;;;;;;;9.45;68.33;100951.25;5068658;28;20044;-73
2021/12/20 05:38:26;;;;;;;5.18;2.00;;;;;;;9.42;68.08;100952.06;5084634;28;20052;-73
2021/12/20 05:40:54;;;;;;;6.90;2.40;;;;;;;9.40;67.42;100953.75;5066736;28;20047;-73
2021/12/20 05:43:22;;;;;;;6.18;2.90;;;;;;;9.39;67.16;100962.50;5068529;28;20047;-73
2021/12/20 05:45:51;;;;;;;9.75;5.47;;;;;;;9.38;66.96;100960.75;5067741;28;20144;-73
2021/12/20 05:48:18;;;;;;;10.63;7.50;;;;;;;9.38;66.80;100963.38;5068081;28;20040;-73
2021/12/20 05:50:46;;;;;;;4.47;2.30;;;;;;;9.34;66.47;100966.78;5068441;28;20041;-73
2021/12/20 05:53:14;;;;;;;9.35;4.95;;;;;;;9.38;66.97;100970.41;5068324;28;20037;-74
2021/12/20 05:55:42;;;;;;;6.40;2.92;;;;;;;9.41;66.72;100973.09;5051318;28;20052;-73
2021/12/20 05:58:10;;;;;;;6.65;3.30;;;;;;;9.40;67.44;100971.31;5068223;28;20128;-74
2021/12/20 06:00:38;;;;;;;13.02;5.05;;;;;;;9.39;67.75;100973.03;5067301;28;20089;-75
2021/12/20 06:03:07;;;;;;;12.05;6.68;;;;;;;9.39;68.21;100975.69;5067156;28;20037;-74
2021/12/20 06:05:34;;;;;;;8.50;3.65;;;;;;;9.34;68.58;100973.78;5053327;28;20167;-73
2021/12/20 06:08:02;;;;;;;4.57;2.38;;;;;;;9.27;68.56;100971.88;5049176;28;20041;-73
2021/12/20 06:10:30;;;;;;;3.83;1.88;;;;;;;9.22;68.92;100969.13;5046902;28;20517;-73
2021/12/20 06:12:57;;;;;;;7.32;2.20;;;;;;;9.18;69.20;100977.81;5047237;28;20141;-74
2021/12/20 06:15:25;;;;;;;3.97;1.80;;;;;;;9.10;69.49;100977.63;5049516;28;20112;-73
2021/12/20 06:17:52;;;;;;;4.72;1.70;;;;;;;9.12;70.07;100980.31;5027466;28;20050;-73
2021/12/20 06:20:22;;;;;;;4.80;1.70;;;;;;;9.29;70.67;100976.34;5028927;28;20030;-73
2021/12/20 06:22:50;;;;;;;3.30;1.45;;;;;;;9.52;71.25;100983.00;5033767;28;20069;-73
2021/12/20 06:25:17;;;;;;;5.35;1.45;;;;;;;9.88;71.81;100988.25;5048482;28;20489;-73
2021/12/20 06:27:47;;;;;;;3.30;1.20;;;;;;;10.15;72.26;100979.13;5046097;28;20416;-73
2021/12/20 06:30:16;;;;;;;2.55;1.23;;;;;;;10.35;72.79;100991.03;5031455;28;20038;-74
2021/12/20 06:32:45;;;;;;;5.40;1.60;;;;;;;10.49;73.00;100986.03;5057813;28;20060;-74
2021/12/20 06:35:13;;;;;;;2.88;1.08;;;;;;;10.76;72.45;100983.91;5012916;28;20041;-74
2021/12/20 06:37:47;;;;;;;2.13;1.00;;;;;;;11.02;72.11;100987.91;5046648;28;20153;-75
2021/12/20 06:40:15;;;;;;;2.00;0.80;;;;;;;11.35;71.35;100989.31;5063670;28;20099;-74
2021/12/20 06:42:43;;;;;;;2.30;1.00;;;;;;;11.63;70.91;100991.50;5049127;28;20044;-74
2021/12/20 06:45:10;;;;;;;3.35;2.20;;;;;;;11.81;69.20;100989.19;5047399;28;20045;-74
2021/12/20 06:47:38;;;;;;;5.53;2.30;;;;;;;11.87;69.58;100991.91;5062333;28;20094;-74
2021/12/20 06:50:07;;;;;;;5.75;1.77;;;;;;;12.05;69.73;100990.38;5080841;28;20497;-73
2021/12/20 06:52:35;;;;;;;3.00;0.90;;;;;;;12.22;69.85;100988.81;5047828;28;20068;-73
2021/12/20 06:55:05;;;;;;;2.97;1.05;;;;;;;12.36;70.18;100989.88;5049919;28;20052;-73
2021/12/20 06:57:33;;;;;;;1.05;0.82;;;;;;;12.45;69.93;100987.34;5047799;28;20099;-73
2021/12/20 07:00:01;;;;;;;2.67;0.80;;;;;;;12.54;69.99;100995.38;5047179;28;20098;-71
2021/12/20 07:02:29;;;;;;;1.65;0.77;;;;;;;12.68;70.13;100991.13;5047182;28;20125;-70
2021/12/20 07:04:56;;;;;;;1.33;0.70;;;;;;;12.80;69.94;100990.34;5048771;28;20049;-70
2021/12/20 07:07:24;;;;;;;2.55;0.82;;;;;;;12.88;69.38;100986.03;5046226;28;20047;-72
2021/12/20 07:09:52;;;;;;;2.13;0.93;;;;;;;12.95;68.88;100992.28;5065875;28;20512;-70
2021/12/20 07:12:21;;;;;;;1.63;1.02;;;;;;;13.01;68.79;100987.91;5074617;28;20477;-71
2021/12/20 07:14:51;;;;;;;3.10;1.20;;;;;;;13.13;69.04;100996.00;5062152;28;20124;-71
2021/12/20 07:17:18;;;;;;;1.50;0.80;;;;;;;13.34;68.37;101000.63;5080660;28;20095;-71
2021/12/20 07:19:46;;;;;;;4.47;1.10;;;;;;;13.49;67.96;101007.81;5044871;28;20077;-71
2021/12/20 07:22:14;;;;;;;4.72;1.30;;;;;;;13.59;67.15;101006.13;5030729;28;20044;-71
2021/12/20 07:24:41;;;;;;;4.20;1.17;;;;;;;13.62;66.66;101007.03;5049138;28;20563;-71
2021/12/20 07:27:11;;;;;;;3.05;0.80;;;;;;;13.68;66.57;101016.78;5051637;28;20040;-71
2021/12/20 07:29:40;;;;;;;3.80;1.70;;;;;;;13.75;65.98;101010.63;5051221;28;20406;-72
2021/12/20 07:32:08;;;;;;;1.75;0.82;;;;;;;13.70;65.14;101015.03;5052170;28;20045;-74
2021/12/20 07:34:35;;;;;;;3.17;1.17;;;;;;;13.76;65.07;101012.41;5051462;28;20045;-70
2021/12/20 07:37:04;;;;;;;3.08;1.40;;;;;;;13.85;63.95;101021.31;5037065;28;20045;-70
2021/12/20 07:39:31;;;;;;;2.28;0.98;;;;;;;13.87;63.16;101013.38;5065657;28;20132;-70
2021/12/20 07:41:59;;;;;;;1.20;0.70;;;;;;;13.89;63.22;101017.81;5058139;28;20463;-70
2021/12/20 07:44:27;;;;;;;1.80;0.82;;;;;;;13.95;62.31;101020.50;5051142;28;20400;-70
2021/12/20 07:46:56;;;;;;;2.20;0.93;;;;;;;14.08;62.38;101028.53;5050819;28;20505;-70
2021/12/20 07:49:24;;;;;;;2.97;1.00;;;;;;;14.08;61.84;101032.09;5050480;28;20120;-70
2021/12/20 07:51:53;;;;;;;2.45;1.00;;;;;;;14.23;61.82;101029.50;5049658;28;20045;-70
2021/12/20 07:54:21;;;;;;;2.85;1.40;;;;;;;14.32;61.13;101034.84;5049829;28;20568;-70
2021/12/20 07:56:49;;;;;;;2.08;1.45;;;;;;;14.43;60.41;101032.28;5051901;28;20041;-70
2021/12/20 07:59:16;;;;;;;3.33;1.75;;;;;;;14.67;59.45;101040.34;5051312;28;20044;-70
2021/12/20 08:01:44;;;;;;;2.08;0.80;;;;;;;14.88;58.57;101038.63;5049901;28;20041;-71
2021/12/20 08:04:14;;;;;;;1.85;0.60;;;;;;;15.01;58.12;101035.13;5031709;28;20104;-70
2021/12/20 08:06:43;;;;;;;4.47;1.75;;;;;;;15.16;57.61;101037.81;5049745;28;20394;-70
2021/12/20 08:09:11;;;;;;;4.60;1.40;;;;;;;15.35;56.38;101038.72;5048453;28;20041;-71
2021/12/20 08:11:40;;;;;;;3.53;1.20;;;;;;;15.33;55.30;101043.13;5047972;28;20053;-71
2021/12/20 08:14:07;;;;;;;2.72;1.70;;;;;;;15.29;55.46;101044.03;5049278;28;20044;-70
2021/12/20 08:16:35;;;;;;;5.53;2.05;;;;;;;15.32;53.73;101046.69;5063002;28;20045;-71
2021/12/20 08:19:03;;;;;;;3.90;1.17;;;;;;;15.19;54.82;101040.47;5069780;28;20452;-70
2021/12/20 08:21:32;;;;;;;4.28;1.73;;;;;;;15.18;54.99;101040.44;5067859;28;20459;-70
2021/12/20 08:24:00;;;;;;;5.47;2.90;;;;;;;15.15;55.03;101038.69;5066807;28;20064;-71
2021/12/20 08:26:28;;;;;;;9.13;3.53;;;;;;;15.16;53.73;101037.81;5067685;28;20056;-70
2021/12/20 08:28:55;;;;;;;5.13;2.33;;;;;;;15.22;54.55;101029.84;5083692;28;20041;-70
2021/12/20 08:31:23;;;;;;;12.20;5.85;;;;;;;15.32;54.15;101033.38;5060611;28;20845;-70
2021/12/20 08:33:50;;;;;;;7.00;2.90;;;;;;;15.36;54.27;101033.38;5048467;28;20150;-70
2021/12/20 08:36:19;;;;;;;10.27;4.50;;;;;;;15.26;53.28;101028.06;5049725;28;20051;-71
2021/12/20 08:38:48;;;;;;;12.40;4.57;;;;;;;15.26;53.53;101031.59;5049480;28;20053;-71
2021/12/20 08:41:17;;;;;;;7.32;2.53;;;;;;;15.33;52.93;101035.16;5045709;28;20055;-71
2021/12/20 08:43:44;;;;;;;6.35;2.00;;;;;;;15.34;53.25;101031.63;5046131;28;20504;-71
2021/12/20 08:46:13;;;;;;;17.35;7.10;;;;;;;15.37;53.03;101031.59;5046350;28;20033;-71
2021/12/20 08:48:41;;;;;;;5.32;2.00;;;;;;;15.45;53.64;101037.81;5047102;28;20060;-71
2021/12/20 08:51:09;;;;;;;6.32;2.63;;;;;;;15.52;53.78;101039.59;5048947;28;20056;-71
2021/12/20 08:53:37;;;;;;;4.80;2.10;;;;;;;15.49;53.17;101036.94;5047921;28;20455;-71
2021/12/20 08:56:06;;;;;;;5.40;2.10;;;;;;;15.43;52.92;101037.81;5067707;28;20118;-71
2021/12/20 08:58:34;;;;;;;4.50;1.55;;;;;;;15.51;52.89;101040.47;5038671;28;20517;-71
2021/12/20 09:01:02;;;;;;;6.40;2.22;;;;;;;15.41;51.98;101038.72;5029964;28;20041;-71
2021/12/20 09:03:29;;;;;;;5.65;2.30;;;;;;;15.57;52.98;101040.50;5045925;28;20095;-71
2021/12/20 09:05:57;;;;;;;5.95;1.92;;;;;;;15.71;52.64;101038.72;5030255;28;20075;-71
2021/12/20 09:08:25;;;;;;;6.57;2.90;;;;;;;15.85;52.92;101018.31;5058342;28;20086;-71
2021/12/20 09:10:53;;;;;;;6.03;2.05;;;;;;;15.89;53.41;101029.81;5050164;28;20040;-71
2021/12/20 09:13:22;;;;;;;7.10;4.03;;;;;;;16.00;53.71;101030.72;5050237;28;20504;-71
2021/12/20 09:15:49;;;;;;;6.40;2.60;;;;;;;16.12;53.19;101027.13;5050280;28;20728;-71
2021/12/20 09:18:17;;;;;;;4.75;1.83;;;;;;;16.10;53.25;101028.88;5048043;28;20124;-71
2021/12/20 09:20:45;;;;;;;5.57;2.30;;;;;;;16.12;53.46;101027.13;5082568;28;20111;-71
2021/12/20 09:23:14;;;;;;;3.45;1.45;;;;;;;16.33;53.11;101025.28;5040317;28;20037;-72
2021/12/20 09:25:43;;;;;;;3.08;1.10;;;;;;;16.31;52.12;101028.81;5045097;28;20049;-71
2021/12/20 09:28:12;;;;;;;3.90;1.60;;;;;;;16.12;51.27;101027.13;5045656;28;20103;-72
2021/12/20 09:30:43;;;;;;;8.98;3.80;;;;;;;16.10;51.73;101013.78;5038587;28;20673;-71
2021/12/20 09:33:11;;;;;;;3.65;1.20;;;;;;;16.25;52.05;101026.19;5040008;28;20037;-71
2021/12/20 09:35:40;;;;;;;5.53;2.00;;;;;;;16.17;51.05;101020.88;5044564;28;20120;-72
2021/12/20 09:38:10;;;;;;;8.40;2.47;;;;;;;16.16;51.55;101026.19;5050326;28;20566;-71
2021/12/20 09:40:40;;;;;;;5.47;1.40;;;;;;;16.27;51.68;101027.06;5068544;28;20036;-74
2021/12/20 09:43:11;;;;;;;4.68;1.67;;;;;;;16.27;51.43;101022.63;5069427;28;20041;-71
2021/12/20 09:45:44;;;;;;;4.47;1.50;;;;;;;16.34;51.53;101015.50;5069122;28;20039;-72
2021/12/20 09:48:13;;;;;;;4.80;2.00;;;;;;;16.33;50.99;101017.28;5067649;28;20045;-71
2021/12/20 09:50:41;;;;;;;4.20;2.05;;;;;;;16.26;50.89;101020.88;5069679;28;20526;-71
2021/12/20 09:53:09;;;;;;;6.05;2.03;;;;;;;16.40;51.32;101010.16;5068145;28;20047;-71
2021/12/20 09:55:37;;;;;;;9.98;3.33;;;;;;;16.51;50.26;101008.31;5068704;28;20036;-71
2021/12/20 09:58:07;;;;;;;4.97;1.65;;;;;;;16.67;50.06;101006.50;5069344;28;20551;-71
2021/12/20 10:00:35;;;;;;;4.72;2.50;;;;;;;16.69;49.68;100997.59;5066713;28;20041;-71
2021/12/20 10:03:05;;;;;;;2.72;1.00;;;;;;;16.71;49.57;101001.13;5069377;28;20047;-71
2021/12/20 10:05:34;;;;;;;5.07;1.38;;;;;;;16.54;48.90;100994.97;5069157;28;20119;-71
2021/12/20 10:08:09;;;;;;;4.25;1.40;;;;;;;16.51;48.97;101000.31;5069242;28;20087;-71
2021/12/20 10:10:40;;;;;;;3.63;1.20;;;;;;;16.48;48.98;100995.00;5069584;28;20131;-71
2021/12/20 10:13:10;;;;;;;3.28;1.20;;;;;;;16.38;48.56;101003.94;5067603;28;20048;-74
2021/12/20 10:15:40;;;;;;;2.95;1.00;;;;;;;16.31;48.58;100991.53;5056169;28;20090;-73
2021/12/20 10:18:15;;;;;;;3.42;1.13;;;;;;;16.09;48.51;100995.16;5070111;28;20068;-70
2021/12/20 10:20:49;;;;;;;3.95;1.52;;;;;;;16.01;49.39;100994.31;5068919;28;20043;-71
2021/12/20 10:23:20;;;;;;;5.50;1.35;;;;;;;16.15;49.46;100995.13;5066505;28;20043;-71
2021/12/20 10:25:51;;;;;;;7.95;2.30;;;;;;;16.15;49.18;100998.69;5068503;28;20060;-71
2021/12/20 10:28:21;;;;;;;4.70;2.05;;;;;;;16.17;49.47;100996.00;5068610;28;20036;-72
2021/12/20 10:30:51;;;;;;;5.03;1.40;;;;;;;16.13;49.43;100989.84;5067637;28;20044;-70
2021/12/20 10:33:22;;;;;;;4.53;1.42;;;;;;;16.05;49.23;100980.09;5067583;28;20413;-71
2021/12/20 10:35:52;;;;;;;3.30;1.33;;;;;;;15.92;49.81;100982.78;5068746;28;20089;-71
2021/12/20 10:38:29;;;;;;;2.75;1.30;;;;;;;16.00;49.79;100981.88;5068942;28;20044;-71
2021/12/20 10:41:00;;;;;;;6.63;1.40;;;;;;;16.19;50.08;100976.50;5052141;28;20051;-71
2021/12/20 10:43:34;;;;;;;3.30;1.38;;;;;;;16.27;49.85;100980.00;5064899;28;20087;-70
2021/12/20 10:46:08;;;;;;;;;;;;;;;16.23;50.18;100975.56;5068098;28;20048;-71
2021/12/20 10:48:38;;;;;;;4.78;1.15;;;;;;;16.17;50.34;100977.38;5067379;28;20487;-70
2021/12/20 10:51:06;;;;;;;2.45;1.00;;;;;;;16.05;50.00;100983.63;5067364;28;20486;-70
2021/12/20 10:53:33;;;;;;;3.50;1.20;;;;;;;15.99;50.12;100980.09;5067405;28;20451;-71
2021/12/20 10:56:06;;;;;;;2.90;0.98;;;;;;;15.82;50.14;100973.03;5069120;28;20102;-70
2021/12/20 10:58:38;;;;;;;2.92;1.15;;;;;;;15.51;50.60;100977.50;5069070;28;20040;-71
2021/12/20 11:01:15;;;;;;;4.95;1.40;;;;;;;15.35;50.90;100977.53;5070587;28;20128;-71
2021/12/20 11:03:45;;;;;;;2.40;1.10;;;;;;;15.48;51.51;100973.97;5053958;28;20429;-71
2021/12/20 11:06:26;;;;;;;7.38;1.98;;;;;;;15.66;51.98;100973.09;5072488;28;20032;-71
2021/12/20 11:09:07;;;;;;;2.65;1.05;;;;;;;15.75;51.80;100967.75;5071688;28;20044;-71
2021/12/20 11:11:36;;;;;;;2.35;0.75;;;;;;;15.63;52.13;100962.44;5071218;28;20051;-71
2021/12/20 11:14:06;;;;;;;5.47;3.13;;;;;;;15.60;52.33;100965.13;5056950;28;20120;-70
2021/12/20 11:16:37;;;;;;;5.88;3.13;;;;;;;15.77;52.14;100966.84;5068114;28;20043;-71
2021/12/20 11:19:19;;;;;;;2.10;1.45;;;;;;;15.61;52.04;100970.44;5052770;28;20045;-71
2021/12/20 11:21:50;;;;;;;7.75;1.42;;;;;;;15.49;52.23;100965.09;5070870;28;20076;-71
2021/12/20 11:24:20;;;;;;;4.88;1.25;;;;;;;15.58;52.53;100950.91;5067417;28;20051;-71
2021/12/20 11:26:48;;;;;;;2.30;1.15;;;;;;;15.76;53.13;100967.72;5072611;28;20140;-71
2021/12/20 11:29:16;;;;;;;4.10;1.17;;;;;;;15.90;52.86;100959.72;5072383;28;20040;-71
2021/12/20 11:31:45;;;;;;;2.35;0.80;;;;;;;15.87;53.41;100957.06;5070753;28;20109;-71
2021/12/20 11:34:12;;;;;;;4.25;1.40;;;;;;;15.83;53.44;100958.84;5072466;28;20050;-71
2021/12/20 11:36:42;;;;;;;3.00;0.95;;;;;;;15.85;53.44;100964.16;5071973;28;20085;-71
2021/12/20 11:39:10;;;;;;;8.10;1.13;;;;;;;15.84;53.36;100965.06;5087557;28;20047;-71
2021/12/20 11:41:39;;;;;;;3.05;1.10;;;;;;;15.94;52.95;100959.72;5072178;28;20404;-71
2021/12/20 11:44:12;;;;;;;2.97;0.88;;;;;;;15.96;51.50;100954.34;5057049;28;20052;-71
2021/12/20 11:46:48;;;;;;;2.72;0.60;;;;;;;15.75;51.50;100955.31;5049063;28;20118;-72
2021/12/20 11:49:20;;;;;;;3.20;0.98;;;;;;;15.56;51.05;100966.88;5051663;28;20044;-71